Washington, DC (20529)

8:02 AM EDT on August 26, 2016 (GMT -0400)
The Washington Post | | Change Station

Elev 151 ft 38.90 °N, 77.03 °W | Updated 8 seconds ago

Scattered Clouds
Scattered Clouds
81.9 °F
Feels Like 89 °F
N
2.0
Wind Variable Wind from SW
Gusts 5.0 mph

Today
High -- | Low -- °F
--% Chance of Precip.
Yesterday
High -- | Low -- °F
Precip. -- in
Pressure 30.06 in
Visibility 10.0 miles
Clouds Few 13000 ft
Scattered Clouds 25000 ft
Heat Index 89 °F
Dew Point 75 °F
Humidity 80%
Rainfall 0.00 in
Snow Depth Not available.
6:32 AM 7:46 PM
Waning Crescent, 35% visible
METAR KDCA 261152Z 17004KT 10SM FEW130 SCT250 27/24 A3006 RMK AO2 SLP179 T02670239 10267 20250 51013
Pressure 30.06 in
Visibility 10.0 miles
Clouds Few 13000 ft
Scattered Clouds 25000 ft
Heat Index 89 °F
Dew Point 75 °F
Humidity 80%
Rainfall 0.00 in
Snow Depth Not available.
6:32 AM 7:46 PM
Waning Crescent, 35% visible
METAR KDCA 261152Z 17004KT 10SM FEW130 SCT250 27/24 A3006 RMK AO2 SLP179 T02670239 10267 20250 51013

10-Day Weather Forecast

Almanac

Astronomy

Aug. 26, 2016 Rise Set
Actual Time
Civil Twilight
Nautical Twilight
Astronomical Twilight
Moon
Length of Visible Light
Length of Day
Tomorrow will be .
, % of the Moon is Illuminated

Today's Extremes

State Highs State Lows

Community

WunderPhotos

Upload Photos

1,935,077 photos uploaded!

WunderBlog® & News

Nearby

Air Quality

  Air Quality AQ Index Pollutant
Not available.

Snow Depth

Station Depth Elevation

Earthquake Activity

City Distance Mag. Time & Date
Minimum magnitude displayed is 2.5.

Coastal Water Temperatures

Place Temperature

Stations

Nearby Weather Stations

Station Location Temp. Windchill Dew Point Humidity Wind Precip. Elev Updated Type
                   

Watches & Warnings

There are currently no watches in effect.